sensor_id;sensor_type;location;lat;lon;timestamp;pressure;altitude;pressure_sealevel;temperature;humidity
79663;BME280;69130;48.724;8.982;2023-04-15T00:01:24;95521.75;;;1.86;81.40
79663;BME280;69130;48.724;8.982;2023-04-15T00:03:53;95520.63;;;1.91;83.02
79663;BME280;69130;48.724;8.982;2023-04-15T00:06:22;95518.78;;;1.93;82.97
79663;BME280;69130;48.724;8.982;2023-04-15T00:08:48;95523.28;;;1.90;82.55
79663;BME280;69130;48.724;8.982;2023-04-15T00:11:15;95522.00;;;1.81;81.83
79663;BME280;69130;48.724;8.982;2023-04-15T00:13:41;95525.88;;;1.72;81.77
79663;BME280;69130;48.724;8.982;2023-04-15T00:16:07;95517.50;;;1.66;81.90
79663;BME280;69130;48.724;8.982;2023-04-15T00:18:33;95520.56;;;1.57;82.23
79663;BME280;69130;48.724;8.982;2023-04-15T00:20:58;95524.47;;;1.48;82.53
79663;BME280;69130;48.724;8.982;2023-04-15T00:23:24;95523.63;;;1.48;83.75
79663;BME280;69130;48.724;8.982;2023-04-15T00:25:50;95519.69;;;1.39;83.87
79663;BME280;69130;48.724;8.982;2023-04-15T00:28:16;95534.78;;;1.33;83.53
79663;BME280;69130;48.724;8.982;2023-04-15T00:30:42;95530.41;;;1.33;83.72
79663;BME280;69130;48.724;8.982;2023-04-15T00:33:07;95518.44;;;1.29;83.95
79663;BME280;69130;48.724;8.982;2023-04-15T00:35:32;95519.22;;;1.31;83.38
79663;BME280;69130;48.724;8.982;2023-04-15T00:37:58;95510.25;;;1.37;84.44
79663;BME280;69130;48.724;8.982;2023-04-15T00:40:24;95512.66;;;1.41;85.15
79663;BME280;69130;48.724;8.982;2023-04-15T00:42:50;95516.09;;;1.42;84.92
79663;BME280;69130;48.724;8.982;2023-04-15T00:45:16;95517.88;;;1.41;84.43
79663;BME280;69130;48.724;8.982;2023-04-15T00:47:42;95521.38;;;1.40;84.20
79663;BME280;69130;48.724;8.982;2023-04-15T00:50:09;95518.16;;;1.35;83.98
79663;BME280;69130;48.724;8.982;2023-04-15T00:52:34;95516.78;;;1.28;83.40
79663;BME280;69130;48.724;8.982;2023-04-15T00:55:00;95519.59;;;1.24;83.74
79663;BME280;69130;48.724;8.982;2023-04-15T00:57:27;95522.03;;;1.27;84.60
79663;BME280;69130;48.724;8.982;2023-04-15T00:59:54;95524.03;;;1.22;84.71
79663;BME280;69130;48.724;8.982;2023-04-15T01:02:20;95519.09;;;1.16;84.55
79663;BME280;69130;48.724;8.982;2023-04-15T01:04:45;95524.88;;;1.22;84.72
79663;BME280;69130;48.724;8.982;2023-04-15T01:07:11;95520.78;;;1.17;84.68
79663;BME280;69130;48.724;8.982;2023-04-15T01:09:37;95522.88;;;1.09;84.19
79663;BME280;69130;48.724;8.982;2023-04-15T01:12:03;95527.13;;;1.11;85.71
79663;BME280;69130;48.724;8.982;2023-04-15T01:14:29;95512.19;;;1.15;84.83
79663;BME280;69130;48.724;8.982;2023-04-15T01:16:54;95516.84;;;1.08;84.82
79663;BME280;69130;48.724;8.982;2023-04-15T01:19:20;95520.22;;;1.10;84.87
79663;BME280;69130;48.724;8.982;2023-04-15T01:21:46;95513.31;;;1.09;85.51
79663;BME280;69130;48.724;8.982;2023-04-15T01:24:12;95514.16;;;1.10;85.91
79663;BME280;69130;48.724;8.982;2023-04-15T01:26:40;95511.00;;;1.03;85.25
79663;BME280;69130;48.724;8.982;2023-04-15T01:29:05;95512.81;;;1.01;84.95
79663;BME280;69130;48.724;8.982;2023-04-15T01:31:31;95513.09;;;0.95;84.86
79663;BME280;69130;48.724;8.982;2023-04-15T01:33:57;95515.16;;;0.88;84.92
79663;BME280;69130;48.724;8.982;2023-04-15T01:36:22;95513.63;;;0.84;85.10
79663;BME280;69130;48.724;8.982;2023-04-15T01:38:48;95512.69;;;0.85;85.62
79663;BME280;69130;48.724;8.982;2023-04-15T01:41:14;95511.22;;;0.80;85.78
79663;BME280;69130;48.724;8.982;2023-04-15T01:43:39;95515.81;;;0.75;85.63
79663;BME280;69130;48.724;8.982;2023-04-15T01:46:05;95517.75;;;0.70;85.86
79663;BME280;69130;48.724;8.982;2023-04-15T01:48:31;95519.44;;;0.71;85.57
79663;BME280;69130;48.724;8.982;2023-04-15T01:50:57;95514.38;;;0.68;86.57
79663;BME280;69130;48.724;8.982;2023-04-15T01:53:24;95518.88;;;0.64;86.04
79663;BME280;69130;48.724;8.982;2023-04-15T01:55:50;95515.63;;;0.59;86.17
79663;BME280;69130;48.724;8.982;2023-04-15T01:58:16;95515.00;;;0.54;85.73
79663;BME280;69130;48.724;8.982;2023-04-15T02:00:41;95518.50;;;0.53;86.24
79663;BME280;69130;48.724;8.982;2023-04-15T02:03:07;95509.94;;;0.51;86.49
79663;BME280;69130;48.724;8.982;2023-04-15T02:05:32;95511.88;;;0.46;86.22
79663;BME280;69130;48.724;8.982;2023-04-15T02:07:58;95505.00;;;0.45;86.71
79663;BME280;69130;48.724;8.982;2023-04-15T02:10:23;95506.59;;;0.48;86.94
79663;BME280;69130;48.724;8.982;2023-04-15T02:12:49;95515.34;;;0.47;86.65
79663;BME280;69130;48.724;8.982;2023-04-15T02:15:14;95510.25;;;0.44;86.44
79663;BME280;69130;48.724;8.982;2023-04-15T02:17:39;95496.53;;;0.40;87.06
79663;BME280;69130;48.724;8.982;2023-04-15T02:20:07;95509.47;;;0.42;87.50
79663;BME280;69130;48.724;8.982;2023-04-15T02:22:33;95502.50;;;0.42;87.59
79663;BME280;69130;48.724;8.982;2023-04-15T02:24:59;95501.03;;;0.37;87.04
79663;BME280;69130;48.724;8.982;2023-04-15T02:27:24;95506.31;;;0.35;87.51
79663;BME280;69130;48.724;8.982;2023-04-15T02:29:50;95497.78;;;0.32;87.54
79663;BME280;69130;48.724;8.982;2023-04-15T02:32:15;95501.38;;;0.29;88.06
79663;BME280;69130;48.724;8.982;2023-04-15T02:34:41;95503.06;;;0.30;87.29
79663;BME280;69130;48.724;8.982;2023-04-15T02:37:08;95503.97;;;0.29;87.65
79663;BME280;69130;48.724;8.982;2023-04-15T02:39:33;95500.59;;;0.27;87.21
79663;BME280;69130;48.724;8.982;2023-04-15T02:41:59;95503.19;;;0.27;87.46
79663;BME280;69130;48.724;8.982;2023-04-15T02:44:25;95500.69;;;0.26;87.98
79663;BME280;69130;48.724;8.982;2023-04-15T02:46:51;95494.81;;;0.21;87.87
79663;BME280;69130;48.724;8.982;2023-04-15T02:49:21;95497.28;;;0.24;88.63
79663;BME280;69130;48.724;8.982;2023-04-15T02:51:47;95498.34;;;0.20;87.76
79663;BME280;69130;48.724;8.982;2023-04-15T02:54:15;95489.94;;;0.13;87.69
79663;BME280;69130;48.724;8.982;2023-04-15T02:56:41;95498.91;;;0.06;87.76
79663;BME280;69130;48.724;8.982;2023-04-15T02:59:06;95506.16;;;-0.01;87.86
79663;BME280;69130;48.724;8.982;2023-04-15T03:01:31;95493.94;;;0.02;88.89
79663;BME280;69130;48.724;8.982;2023-04-15T03:03:57;95500.94;;;-0.01;87.52
79663;BME280;69130;48.724;8.982;2023-04-15T03:06:22;95494.09;;;-0.03;87.76
79663;BME280;69130;48.724;8.982;2023-04-15T03:08:49;95504.69;;;-0.08;87.16
79663;BME280;69130;48.724;8.982;2023-04-15T03:11:14;95511.78;;;-0.11;87.96
79663;BME280;69130;48.724;8.982;2023-04-15T03:13:41;95507.28;;;-0.08;88.13
79663;BME280;69130;48.724;8.982;2023-04-15T03:16:08;95505.81;;;-0.13;88.38
79663;BME280;69130;48.724;8.982;2023-04-15T03:18:33;95500.59;;;-0.13;88.61
79663;BME280;69130;48.724;8.982;2023-04-15T03:20:58;95504.78;;;-0.09;88.54
79663;BME280;69130;48.724;8.982;2023-04-15T03:23:24;95507.19;;;-0.05;89.51
79663;BME280;69130;48.724;8.982;2023-04-15T03:25:49;95503.91;;;0.11;88.90
79663;BME280;69130;48.724;8.982;2023-04-15T03:28:15;95501.06;;;0.17;89.40
79663;BME280;69130;48.724;8.982;2023-04-15T03:30:40;95500.09;;;0.19;89.32
79663;BME280;69130;48.724;8.982;2023-04-15T03:33:06;95493.06;;;0.21;89.23
79663;BME280;69130;48.724;8.982;2023-04-15T03:35:33;95486.41;;;0.14;88.13
79663;BME280;69130;48.724;8.982;2023-04-15T03:37:58;95483.31;;;0.06;87.56
79663;BME280;69130;48.724;8.982;2023-04-15T03:40:23;95482.34;;;0.09;89.45
79663;BME280;69130;48.724;8.982;2023-04-15T03:42:49;95488.56;;;0.05;89.13
79663;BME280;69130;48.724;8.982;2023-04-15T03:45:15;95498.47;;;-0.04;88.43
79663;BME280;69130;48.724;8.982;2023-04-15T03:47:40;95488.53;;;-0.14;88.27
79663;BME280;69130;48.724;8.982;2023-04-15T03:50:06;95495.66;;;-0.19;88.97
79663;BME280;69130;48.724;8.982;2023-04-15T03:52:32;95485.44;;;-0.24;88.62
79663;BME280;69130;48.724;8.982;2023-04-15T03:54:58;95487.69;;;-0.15;89.64
79663;BME280;69130;48.724;8.982;2023-04-15T03:57:23;95489.69;;;-0.21;89.48
79663;BME280;69130;48.724;8.982;2023-04-15T03:59:48;95489.13;;;-0.28;89.06
79663;BME280;69130;48.724;8.982;2023-04-15T04:02:14;95491.72;;;-0.28;88.85
79663;BME280;69130;48.724;8.982;2023-04-15T04:04:39;95491.50;;;-0.23;89.71
79663;BME280;69130;48.724;8.982;2023-04-15T04:07:04;95493.78;;;-0.16;89.27
79663;BME280;69130;48.724;8.982;2023-04-15T04:09:30;95495.22;;;-0.09;90.00
79663;BME280;69130;48.724;8.982;2023-04-15T04:11:55;95493.34;;;-0.05;90.54
79663;BME280;69130;48.724;8.982;2023-04-15T04:14:22;95495.22;;;-0.09;89.38
79663;BME280;69130;48.724;8.982;2023-04-15T04:16:53;95498.59;;;-0.07;89.92
79663;BME280;69130;48.724;8.982;2023-04-15T04:19:18;95498.59;;;-0.07;89.55
79663;BME280;69130;48.724;8.982;2023-04-15T04:21:44;95501.31;;;-0.10;89.86
79663;BME280;69130;48.724;8.982;2023-04-15T04:24:09;95499.81;;;-0.15;89.33
79663;BME280;69130;48.724;8.982;2023-04-15T04:26:35;95504.25;;;-0.17;89.93
79663;BME280;69130;48.724;8.982;2023-04-15T04:29:00;95499.19;;;-0.20;89.50
79663;BME280;69130;48.724;8.982;2023-04-15T04:31:25;95497.41;;;-0.20;90.21
79663;BME280;69130;48.724;8.982;2023-04-15T04:33:51;95501.91;;;-0.23;88.91
79663;BME280;69130;48.724;8.982;2023-04-15T04:36:16;95508.06;;;-0.26;90.03
79663;BME280;69130;48.724;8.982;2023-04-15T04:38:42;95509.13;;;-0.30;88.96
79663;BME280;69130;48.724;8.982;2023-04-15T04:41:07;95503.97;;;-0.31;89.64
79663;BME280;69130;48.724;8.982;2023-04-15T04:43:33;95508.03;;;-0.24;89.57
79663;BME280;69130;48.724;8.982;2023-04-15T04:45:58;95506.25;;;-0.24;89.61
79663;BME280;69130;48.724;8.982;2023-04-15T04:48:23;95511.19;;;-0.18;90.82
79663;BME280;69130;48.724;8.982;2023-04-15T04:50:49;95513.16;;;-0.23;89.17
79663;BME280;69130;48.724;8.982;2023-04-15T04:53:15;95504.72;;;-0.28;89.12
79663;BME280;69130;48.724;8.982;2023-04-15T04:55:40;95508.28;;;-0.30;88.29
79663;BME280;69130;48.724;8.982;2023-04-15T04:58:05;95510.88;;;-0.30;89.02
79663;BME280;69130;48.724;8.982;2023-04-15T05:00:31;95510.72;;;-0.27;89.03
79663;BME280;69130;48.724;8.982;2023-04-15T05:02:56;95513.34;;;-0.27;88.75
79663;BME280;69130;48.724;8.982;2023-04-15T05:05:22;95512.22;;;-0.22;88.95
79663;BME280;69130;48.724;8.982;2023-04-15T05:07:47;95507.56;;;-0.14;88.65
79663;BME280;69130;48.724;8.982;2023-04-15T05:10:14;95520.50;;;-0.12;88.62
79663;BME280;69130;48.724;8.982;2023-04-15T05:12:41;95521.34;;;-0.12;89.05
79663;BME280;69130;48.724;8.982;2023-04-15T05:15:07;95523.31;;;0.04;88.48
79663;BME280;69130;48.724;8.982;2023-04-15T05:17:33;95525.91;;;0.04;88.48
79663;BME280;69130;48.724;8.982;2023-04-15T05:19:59;95529.06;;;0.10;87.96
79663;BME280;69130;48.724;8.982;2023-04-15T05:22:25;95520.19;;;0.16;88.12
79663;BME280;69130;48.724;8.982;2023-04-15T05:24:50;95524.00;;;0.27;87.40
79663;BME280;69130;48.724;8.982;2023-04-15T05:27:16;95522.69;;;0.37;87.38
79663;BME280;69130;48.724;8.982;2023-04-15T05:29:41;95528.91;;;0.53;88.12
79663;BME280;69130;48.724;8.982;2023-04-15T05:32:06;95526.50;;;0.69;87.64
79663;BME280;69130;48.724;8.982;2023-04-15T05:34:32;95532.75;;;0.83;87.08
79663;BME280;69130;48.724;8.982;2023-04-15T05:36:57;95533.31;;;1.09;87.29
79663;BME280;69130;48.724;8.982;2023-04-15T05:39:22;95528.09;;;1.27;86.32
79663;BME280;69130;48.724;8.982;2023-04-15T05:41:48;95522.00;;;1.45;84.93
79663;BME280;69130;48.724;8.982;2023-04-15T05:44:13;95523.34;;;1.71;83.96
79663;BME280;69130;48.724;8.982;2023-04-15T05:46:39;95524.00;;;2.10;82.74
79663;BME280;69130;48.724;8.982;2023-04-15T05:49:04;95515.81;;;2.50;81.13
79663;BME280;69130;48.724;8.982;2023-04-15T05:51:30;95518.78;;;2.93;79.63
79663;BME280;69130;48.724;8.982;2023-04-15T05:53:55;95519.88;;;3.35;78.65
79663;BME280;69130;48.724;8.982;2023-04-15T05:56:21;95523.09;;;3.56;76.57
79663;BME280;69130;48.724;8.982;2023-04-15T05:58:46;95528.63;;;3.81;76.56
79663;BME280;69130;48.724;8.982;2023-04-15T06:01:11;95521.94;;;3.91;76.10
79663;BME280;69130;48.724;8.982;2023-04-15T06:03:37;95528.53;;;3.98;75.00
79663;BME280;69130;48.724;8.982;2023-04-15T06:06:03;95518.78;;;4.16;75.20
79663;BME280;69130;48.724;8.982;2023-04-15T06:08:28;95527.63;;;4.43;72.96
79663;BME280;69130;48.724;8.982;2023-04-15T06:10:53;95524.59;;;4.93;73.34
79663;BME280;69130;48.724;8.982;2023-04-15T06:13:19;95524.16;;;5.41;71.64
79663;BME280;69130;48.724;8.982;2023-04-15T06:15:44;95524.03;;;5.97;69.94
79663;BME280;69130;48.724;8.982;2023-04-15T06:18:10;95525.91;;;6.35;67.68
79663;BME280;69130;48.724;8.982;2023-04-15T06:20:35;95524.59;;;6.67;66.13
79663;BME280;69130;48.724;8.982;2023-04-15T06:23:01;95530.69;;;6.80;64.73
79663;BME280;69130;48.724;8.982;2023-04-15T06:25:27;95525.84;;;6.99;65.13
79663;BME280;69130;48.724;8.982;2023-04-15T06:27:52;95523.03;;;7.63;63.77
79663;BME280;69130;48.724;8.982;2023-04-15T06:30:17;95520.91;;;7.56;60.87
79663;BME280;69130;48.724;8.982;2023-04-15T06:32:43;95519.72;;;7.72;61.29
79663;BME280;69130;48.724;8.982;2023-04-15T06:35:08;95521.94;;;8.26;59.15
79663;BME280;69130;48.724;8.982;2023-04-15T06:37:34;95522.03;;;8.48;59.10
79663;BME280;69130;48.724;8.982;2023-04-15T06:40:00;95526.13;;;8.52;58.27
79663;BME280;69130;48.724;8.982;2023-04-15T06:42:25;95527.91;;;8.97;57.20
79663;BME280;69130;48.724;8.982;2023-04-15T06:44:50;95527.94;;;9.41;56.89
79663;BME280;69130;48.724;8.982;2023-04-15T06:47:16;95535.38;;;9.47;58.36
79663;BME280;69130;48.724;8.982;2023-04-15T06:49:41;95532.69;;;9.92;55.00
79663;BME280;69130;48.724;8.982;2023-04-15T06:52:07;95528.97;;;10.69;55.11
79663;BME280;69130;48.724;8.982;2023-04-15T06:54:33;95534.78;;;10.83;53.31
79663;BME280;69130;48.724;8.982;2023-04-15T06:56:58;95527.94;;;11.01;51.17
79663;BME280;69130;48.724;8.982;2023-04-15T06:59:23;95522.34;;;10.95;53.17
79663;BME280;69130;48.724;8.982;2023-04-15T07:01:49;95517.06;;;11.55;51.23
79663;BME280;69130;48.724;8.982;2023-04-15T07:04:15;95522.19;;;12.26;50.01
79663;BME280;69130;48.724;8.982;2023-04-15T07:06:40;95533.94;;;13.20;46.79
79663;BME280;69130;48.724;8.982;2023-04-15T07:09:06;95530.25;;;14.31;44.17
79663;BME280;69130;48.724;8.982;2023-04-15T07:11:31;95528.03;;;13.99;43.91
79663;BME280;69130;48.724;8.982;2023-04-15T07:13:57;95520.41;;;15.37;39.91
79663;BME280;69130;48.724;8.982;2023-04-15T07:16:22;95520.31;;;14.68;41.05
79663;BME280;69130;48.724;8.982;2023-04-15T07:18:48;95522.69;;;15.32;41.75
79663;BME280;69130;48.724;8.982;2023-04-15T07:21:13;95512.38;;;15.54;39.58
79663;BME280;69130;48.724;8.982;2023-04-15T07:23:38;95513.78;;;14.45;41.72
79663;BME280;69130;48.724;8.982;2023-04-15T07:26:04;95510.91;;;14.91;42.84
79663;BME280;69130;48.724;8.982;2023-04-15T07:28:29;95509.13;;;15.17;42.15
79663;BME280;69130;48.724;8.982;2023-04-15T07:30:55;95520.94;;;15.40;40.68
79663;BME280;69130;48.724;8.982;2023-04-15T07:33:23;95526.88;;;15.52;41.37
79663;BME280;69130;48.724;8.982;2023-04-15T07:35:49;95518.69;;;15.79;41.79
79663;BME280;69130;48.724;8.982;2023-04-15T07:38:14;95516.00;;;16.13;41.08
79663;BME280;69130;48.724;8.982;2023-04-15T07:40:40;95516.78;;;16.47;38.85
79663;BME280;69130;48.724;8.982;2023-04-15T07:43:06;95521.06;;;15.56;40.38
79663;BME280;69130;48.724;8.982;2023-04-15T07:45:31;95523.44;;;14.99;42.88
79663;BME280;69130;48.724;8.982;2023-04-15T07:47:57;95522.84;;;14.87;43.35
79663;BME280;69130;48.724;8.982;2023-04-15T07:50:23;95521.16;;;14.51;45.01
79663;BME280;69130;48.724;8.982;2023-04-15T07:52:51;95514.25;;;14.75;44.51
79663;BME280;69130;48.724;8.982;2023-04-15T07:55:17;95516.03;;;15.10;43.14
79663;BME280;69130;48.724;8.982;2023-04-15T07:57:45;95513.66;;;14.81;42.93
79663;BME280;69130;48.724;8.982;2023-04-15T08:00:12;95517.19;;;15.08;43.32
79663;BME280;69130;48.724;8.982;2023-04-15T08:02:37;95507.91;;;15.63;41.85
79663;BME280;69130;48.724;8.982;2023-04-15T08:05:03;95515.72;;;15.82;41.76
79663;BME280;69130;48.724;8.982;2023-04-15T08:07:29;95514.69;;;16.83;40.25
79663;BME280;69130;48.724;8.982;2023-04-15T08:09:55;95511.28;;;18.32;38.00
79663;BME280;69130;48.724;8.982;2023-04-15T08:12:20;95508.09;;;19.87;36.42
79663;BME280;69130;48.724;8.982;2023-04-15T08:14:46;95509.16;;;21.43;32.57
79663;BME280;69130;48.724;8.982;2023-04-15T08:17:11;95506.38;;;23.01;30.04
79663;BME280;69130;48.724;8.982;2023-04-15T08:19:37;95507.78;;;24.74;27.53
79663;BME280;69130;48.724;8.982;2023-04-15T08:22:02;95518.88;;;25.72;25.29
79663;BME280;69130;48.724;8.982;2023-04-15T08:24:30;95515.09;;;25.49;25.17
79663;BME280;69130;48.724;8.982;2023-04-15T08:26:55;95523.22;;;24.47;25.96
79663;BME280;69130;48.724;8.982;2023-04-15T08:29:21;95528.75;;;26.16;24.60
79663;BME280;69130;48.724;8.982;2023-04-15T08:31:47;95520.78;;;24.96;24.22
79663;BME280;69130;48.724;8.982;2023-04-15T08:34:12;95516.66;;;23.65;26.15
79663;BME280;69130;48.724;8.982;2023-04-15T08:36:38;95519.34;;;21.97;28.19
79663;BME280;69130;48.724;8.982;2023-04-15T08:39:03;95520.91;;;21.15;28.80
79663;BME280;69130;48.724;8.982;2023-04-15T08:41:34;95519.91;;;20.30;30.44
79663;BME280;69130;48.724;8.982;2023-04-15T08:44:03;95527.53;;;18.92;30.70
79663;BME280;69130;48.724;8.982;2023-04-15T08:46:30;95523.66;;;17.86;33.91
79663;BME280;69130;48.724;8.982;2023-04-15T08:48:57;95526.84;;;17.82;35.56
79663;BME280;69130;48.724;8.982;2023-04-15T08:51:23;95527.41;;;17.61;32.92
79663;BME280;69130;48.724;8.982;2023-04-15T08:53:49;95532.75;;;17.05;33.52
79663;BME280;69130;48.724;8.982;2023-04-15T08:56:15;95530.75;;;17.31;35.32
79663;BME280;69130;48.724;8.982;2023-04-15T08:58:42;95527.06;;;16.84;35.33
79663;BME280;69130;48.724;8.982;2023-04-15T09:01:08;95524.91;;;17.27;34.75
79663;BME280;69130;48.724;8.982;2023-04-15T09:03:34;95517.50;;;18.63;33.09
79663;BME280;69130;48.724;8.982;2023-04-15T09:06:03;95522.94;;;19.00;31.30
79663;BME280;69130;48.724;8.982;2023-04-15T09:08:28;95521.81;;;19.17;33.19
79663;BME280;69130;48.724;8.982;2023-04-15T09:10:54;95527.72;;;19.13;33.94
79663;BME280;69130;48.724;8.982;2023-04-15T09:13:19;95523.28;;;19.80;31.17
79663;BME280;69130;48.724;8.982;2023-04-15T09:15:44;95533.28;;;21.09;30.44
79663;BME280;69130;48.724;8.982;2023-04-15T09:18:11;95536.25;;;21.84;29.22
79663;BME280;69130;48.724;8.982;2023-04-15T09:20:41;95533.78;;;23.05;26.20
79663;BME280;69130;48.724;8.982;2023-04-15T09:23:13;95532.75;;;24.63;24.48
79663;BME280;69130;48.724;8.982;2023-04-15T09:25:41;95542.47;;;24.90;23.74
79663;BME280;69130;48.724;8.982;2023-04-15T09:28:07;95542.53;;;23.26;24.17
79663;BME280;69130;48.724;8.982;2023-04-15T09:30:32;95543.84;;;22.02;28.09
79663;BME280;69130;48.724;8.982;2023-04-15T09:33:00;95544.81;;;21.24;29.49
79663;BME280;69130;48.724;8.982;2023-04-15T09:35:33;95545.81;;;20.52;29.04
79663;BME280;69130;48.724;8.982;2023-04-15T09:38:06;95547.81;;;20.79;27.83
79663;BME280;69130;48.724;8.982;2023-04-15T09:40:36;95540.41;;;20.66;28.37
79663;BME280;69130;48.724;8.982;2023-04-15T09:43:03;95548.91;;;20.84;29.35
79663;BME280;69130;48.724;8.982;2023-04-15T09:45:30;95549.78;;;21.69;28.86
79663;BME280;69130;48.724;8.982;2023-04-15T09:47:57;95542.44;;;22.06;28.58
79663;BME280;69130;48.724;8.982;2023-04-15T09:50:26;95556.34;;;22.50;28.00
79663;BME280;69130;48.724;8.982;2023-04-15T09:52:52;95553.44;;;22.86;26.87
79663;BME280;69130;48.724;8.982;2023-04-15T09:55:17;95559.97;;;22.64;26.93
79663;BME280;69130;48.724;8.982;2023-04-15T09:57:44;95560.69;;;21.83;28.57
79663;BME280;69130;48.724;8.982;2023-04-15T10:00:11;95557.13;;;21.54;26.61
79663;BME280;69130;48.724;8.982;2023-04-15T10:02:41;95558.38;;;21.16;28.67
79663;BME280;69130;48.724;8.982;2023-04-15T10:05:10;95560.75;;;21.26;29.43
79663;BME280;69130;48.724;8.982;2023-04-15T10:07:38;95555.13;;;22.12;26.53
79663;BME280;69130;48.724;8.982;2023-04-15T10:10:05;95568.56;;;22.39;26.91
79663;BME280;69130;48.724;8.982;2023-04-15T10:12:32;95559.22;;;22.42;26.77
79663;BME280;69130;48.724;8.982;2023-04-15T10:14:59;95563.38;;;22.44;27.40
79663;BME280;69130;48.724;8.982;2023-04-15T10:17:29;95562.94;;;22.75;25.02
79663;BME280;69130;48.724;8.982;2023-04-15T10:20:00;95569.56;;;23.20;25.39
79663;BME280;69130;48.724;8.982;2023-04-15T10:22:27;95566.97;;;22.99;25.73
79663;BME280;69130;48.724;8.982;2023-04-15T10:24:53;95570.13;;;22.62;25.33
79663;BME280;69130;48.724;8.982;2023-04-15T10:27:20;95570.25;;;22.47;25.11
79663;BME280;69130;48.724;8.982;2023-04-15T10:29:47;95566.91;;;21.41;26.50
79663;BME280;69130;48.724;8.982;2023-04-15T10:32:13;95566.88;;;20.34;27.95
79663;BME280;69130;48.724;8.982;2023-04-15T10:34:40;95571.16;;;19.31;30.11
79663;BME280;69130;48.724;8.982;2023-04-15T10:37:08;95573.22;;;18.76;31.19
79663;BME280;69130;48.724;8.982;2023-04-15T10:42:13;95565.59;;;18.02;32.65
79663;BME280;69130;48.724;8.982;2023-04-15T10:44:44;95574.16;;;17.01;34.20
79663;BME280;69130;48.724;8.982;2023-04-15T10:47:15;95588.56;;;17.16;35.16
79663;BME280;69130;48.724;8.982;2023-04-15T10:52:11;95580.34;;;16.35;35.66
79663;BME280;69130;48.724;8.982;2023-04-15T10:54:38;95596.28;;;16.53;35.18
79663;BME280;69130;48.724;8.982;2023-04-15T11:02:56;95599.25;;;16.16;36.04
79663;BME280;69130;48.724;8.982;2023-04-15T11:08:08;95591.25;;;16.16;36.51
79663;BME280;69130;48.724;8.982;2023-04-15T11:12:59;95598.78;;;17.61;34.71
79663;BME280;69130;48.724;8.982;2023-04-15T11:15:28;95599.81;;;17.76;33.93
79663;BME280;69130;48.724;8.982;2023-04-15T11:17:58;95594.59;;;17.66;33.64
79663;BME280;69130;48.724;8.982;2023-04-15T11:20:24;95600.88;;;16.77;33.93
79663;BME280;69130;48.724;8.982;2023-04-15T11:22:51;95606.94;;;17.19;33.61
79663;BME280;69130;48.724;8.982;2023-04-15T11:25:27;95603.59;;;17.33;34.87
79663;BME280;69130;48.724;8.982;2023-04-15T11:27:53;95603.56;;;17.09;34.00
79663;BME280;69130;48.724;8.982;2023-04-15T11:30:21;95603.47;;;18.84;32.39
79663;BME280;69130;48.724;8.982;2023-04-15T11:32:48;95601.84;;;18.75;32.10
79663;BME280;69130;48.724;8.982;2023-04-15T11:35:15;95604.19;;;18.78;31.43
79663;BME280;69130;48.724;8.982;2023-04-15T11:37:41;95611.03;;;18.81;32.36
79663;BME280;69130;48.724;8.982;2023-04-15T11:40:07;95604.97;;;20.00;32.57
79663;BME280;69130;48.724;8.982;2023-04-15T11:42:48;95610.63;;;21.85;30.38
79663;BME280;69130;48.724;8.982;2023-04-15T11:45:30;95615.13;;;22.27;28.29
79663;BME280;69130;48.724;8.982;2023-04-15T11:48:12;95616.97;;;21.78;28.62
79663;BME280;69130;48.724;8.982;2023-04-15T11:50:43;95627.34;;;21.59;27.56
79663;BME280;69130;48.724;8.982;2023-04-15T11:53:11;95629.78;;;20.39;29.74
79663;BME280;69130;48.724;8.982;2023-04-15T11:55:51;95621.47;;;20.12;29.33
79663;BME280;69130;48.724;8.982;2023-04-15T11:58:20;95627.34;;;20.88;28.40
79663;BME280;69130;48.724;8.982;2023-04-15T12:00:51;95636.34;;;20.80;30.81
79663;BME280;69130;48.724;8.982;2023-04-15T12:03:25;95629.06;;;20.08;29.48
79663;BME280;69130;48.724;8.982;2023-04-15T12:06:10;95639.41;;;19.29;32.14
79663;BME280;69130;48.724;8.982;2023-04-15T12:09:08;95634.59;;;18.93;33.25
79663;BME280;69130;48.724;8.982;2023-04-15T12:14:07;95646.66;;;19.20;32.58
79663;BME280;69130;48.724;8.982;2023-04-15T12:16:34;95650.78;;;19.39;34.28
79663;BME280;69130;48.724;8.982;2023-04-15T12:19:04;95650.34;;;19.27;33.23
79663;BME280;69130;48.724;8.982;2023-04-15T12:21:33;95653.25;;;18.79;34.36
79663;BME280;69130;48.724;8.982;2023-04-15T12:24:02;95657.03;;;18.54;34.30
79663;BME280;69130;48.724;8.982;2023-04-15T12:26:34;95661.22;;;17.11;36.50
79663;BME280;69130;48.724;8.982;2023-04-15T12:29:06;95662.63;;;16.74;37.60
79663;BME280;69130;48.724;8.982;2023-04-15T12:31:35;95674.50;;;16.71;38.45
79663;BME280;69130;48.724;8.982;2023-04-15T12:34:02;95671.13;;;16.69;34.77
79663;BME280;69130;48.724;8.982;2023-04-15T12:36:29;95671.31;;;18.46;32.90
79663;BME280;69130;48.724;8.982;2023-04-15T12:39:04;95679.66;;;19.82;30.82
79663;BME280;69130;48.724;8.982;2023-04-15T12:41:31;95671.50;;;21.08;29.44
79663;BME280;69130;48.724;8.982;2023-04-15T12:43:56;95675.09;;;21.15;28.38
79663;BME280;69130;48.724;8.982;2023-04-15T12:46:22;95681.75;;;19.94;28.84
79663;BME280;69130;48.724;8.982;2023-04-15T12:48:47;95681.47;;;19.67;29.71
79663;BME280;69130;48.724;8.982;2023-04-15T12:51:13;95674.34;;;18.90;29.71
79663;BME280;69130;48.724;8.982;2023-04-15T12:53:38;95683.22;;;20.34;29.78
79663;BME280;69130;48.724;8.982;2023-04-15T12:56:04;95680.66;;;20.84;28.58
79663;BME280;69130;48.724;8.982;2023-04-15T12:58:30;95688.34;;;20.87;28.40
79663;BME280;69130;48.724;8.982;2023-04-15T13:00:56;95695.41;;;20.45;28.68
79663;BME280;69130;48.724;8.982;2023-04-15T13:03:21;95690.66;;;19.42;33.68
79663;BME280;69130;48.724;8.982;2023-04-15T13:05:46;95705.97;;;18.48;35.40
79663;BME280;69130;48.724;8.982;2023-04-15T13:08:12;95714.91;;;17.26;37.67
79663;BME280;69130;48.724;8.982;2023-04-15T13:10:37;95719.56;;;17.16;37.77
79663;BME280;69130;48.724;8.982;2023-04-15T13:13:03;95726.06;;;16.46;37.78
79663;BME280;69130;48.724;8.982;2023-04-15T13:15:29;95726.72;;;15.97;39.75
79663;BME280;69130;48.724;8.982;2023-04-15T13:17:54;95724.78;;;15.46;40.78
79663;BME280;69130;48.724;8.982;2023-04-15T13:20:20;95727.84;;;15.24;41.51